Time;durP1;ratioP1;P1;durP2;ratioP2;P2;SDS_P1;SDS_P2;PMS_P1;PMS_P2;Temp;Humidity;BMP_temperature;BMP_pressure;BME280_temperature;BME280_humidity;BME280_pressure;Samples;Min_cycle;Max_cycle;Signal;HPM_P1;HPM_P2
2021/03/09 00:00:48;;;;;;;48.45;27.80;;;7.00;99.90;;;;;;4148703;28;20034;-69
2021/03/09 00:02:49;;;;;;;46.88;27.63;;;7.00;99.90;;;;;;4153399;28;20042;-69
2021/03/09 00:04:49;;;;;;;47.58;27.38;;;7.00;99.90;;;;;;4155988;28;20041;-70
2021/03/09 00:06:50;;;;;;;50.50;28.02;;;7.00;99.90;;;;;;4153265;28;20048;-70
2021/03/09 00:08:51;;;;;;;48.20;27.98;;;7.00;99.90;;;;;;4155758;28;20049;-69
2021/03/09 00:10:52;;;;;;;49.22;27.80;;;7.00;99.90;;;;;;4155593;28;20164;-68
2021/03/09 00:12:52;;;;;;;44.50;25.90;;;7.00;99.90;;;;;;4159128;28;20041;-68
2021/03/09 00:14:53;;;;;;;50.63;28.15;;;7.00;99.90;;;;;;4153708;28;20160;-68
2021/03/09 00:16:54;;;;;;;53.35;28.45;;;7.00;99.90;;;;;;4160518;28;20108;-68
2021/03/09 00:18:54;;;;;;;48.75;27.73;;;7.00;99.90;;;;;;4158077;28;20063;-68
2021/03/09 00:20:55;;;;;;;52.63;27.83;;;7.10;99.90;;;;;;4158569;28;20110;-68
2021/03/09 00:22:55;;;;;;;48.08;27.15;;;7.10;99.90;;;;;;4159817;28;20412;-68
2021/03/09 00:24:56;;;;;;;50.88;26.63;;;7.10;99.90;;;;;;4159662;28;20078;-68
2021/03/09 00:26:57;;;;;;;46.58;26.95;;;7.00;99.90;;;;;;4162903;28;20056;-68
2021/03/09 00:28:58;;;;;;;50.72;28.35;;;7.00;99.90;;;;;;4163971;28;20030;-68
2021/03/09 00:30:58;;;;;;;54.72;30.75;;;7.10;99.90;;;;;;4159170;28;20040;-68
2021/03/09 00:32:59;;;;;;;52.13;29.02;;;7.10;99.90;;;;;;4157764;28;20044;-68
2021/03/09 00:34:59;;;;;;;50.40;27.70;;;7.00;99.90;;;;;;4159802;28;20026;-68
2021/03/09 00:37:00;;;;;;;45.88;27.00;;;7.00;99.90;;;;;;4159753;28;20418;-68
2021/03/09 00:39:01;;;;;;;47.00;26.27;;;7.00;99.90;;;;;;4159117;28;20381;-68
2021/03/09 00:41:01;;;;;;;47.78;26.48;;;7.00;99.90;;;;;;4123447;28;20025;-68
2021/03/09 00:43:02;;;;;;;45.67;25.98;;;7.00;99.90;;;;;;4156352;28;20602;-68
2021/03/09 00:45:03;;;;;;;45.70;27.05;;;7.00;99.90;;;;;;4154972;28;20042;-68
2021/03/09 00:47:04;;;;;;;46.60;26.17;;;7.00;99.90;;;;;;4159742;28;20026;-68
2021/03/09 00:49:04;;;;;;;49.63;26.58;;;7.00;99.90;;;;;;4155808;28;20409;-68
2021/03/09 00:51:06;;;;;;;47.17;26.05;;;7.00;99.90;;;;;;4156562;28;20037;-68
2021/03/09 00:53:07;;;;;;;45.25;25.83;;;7.00;99.90;;;;;;4156739;28;20030;-68
2021/03/09 00:55:08;;;;;;;44.80;26.27;;;7.00;99.90;;;;;;4155455;28;20354;-68
2021/03/09 00:57:09;;;;;;;48.03;27.83;;;6.90;99.90;;;;;;4163059;28;20026;-68
2021/03/09 00:59:10;;;;;;;47.20;27.10;;;6.90;99.90;;;;;;4156325;28;20056;-68
2021/03/09 01:01:10;;;;;;;45.97;27.33;;;6.80;99.90;;;;;;4158535;28;20040;-68
2021/03/09 01:03:11;;;;;;;47.42;27.40;;;6.80;99.90;;;;;;4157783;28;20036;-68
2021/03/09 01:05:12;;;;;;;46.50;26.42;;;6.80;99.90;;;;;;4159226;28;20057;-68
2021/03/09 01:07:12;;;;;;;50.25;27.27;;;6.80;99.90;;;;;;4158869;28;20123;-68
2021/03/09 01:09:13;;;;;;;45.03;26.02;;;6.80;99.90;;;;;;4158430;28;20429;-68
2021/03/09 01:11:14;;;;;;;50.92;28.17;;;6.70;99.90;;;;;;4153071;28;20033;-68
2021/03/09 01:13:14;;;;;;;46.70;25.55;;;6.70;99.90;;;;;;4157087;28;20095;-69
2021/03/09 01:15:15;;;;;;;52.10;26.67;;;6.70;99.90;;;;;;4152563;28;20029;-68
2021/03/09 01:17:16;;;;;;;46.00;26.38;;;6.70;99.90;;;;;;4164954;28;20033;-68
2021/03/09 01:19:17;;;;;;;43.60;23.85;;;6.60;99.90;;;;;;4156827;28;20720;-68
2021/03/09 01:21:17;;;;;;;46.17;25.70;;;6.60;99.90;;;;;;4158050;28;20112;-68
2021/03/09 01:23:18;;;;;;;45.95;25.60;;;6.60;99.90;;;;;;4152248;28;20029;-68
2021/03/09 01:25:19;;;;;;;51.70;28.27;;;6.60;99.90;;;;;;4152499;28;20111;-68
2021/03/09 01:27:19;;;;;;;46.17;25.45;;;6.60;99.90;;;;;;4154030;28;20038;-68
2021/03/09 01:29:20;;;;;;;50.08;27.00;;;6.60;99.90;;;;;;4151464;28;20053;-68
2021/03/09 01:31:21;;;;;;;45.45;25.60;;;6.60;99.90;;;;;;4150672;28;20044;-68
2021/03/09 01:33:22;;;;;;;46.63;26.55;;;6.60;99.90;;;;;;4159073;28;20601;-68
2021/03/09 01:35:23;;;;;;;44.40;24.73;;;6.60;99.90;;;;;;4133918;28;20046;-68
2021/03/09 01:37:24;;;;;;;50.72;27.20;;;6.50;99.90;;;;;;4162425;28;20041;-68
2021/03/09 01:39:25;;;;;;;50.97;27.30;;;6.50;99.90;;;;;;4154144;28;20124;-68
2021/03/09 01:41:25;;;;;;;47.70;26.80;;;6.50;99.90;;;;;;4155825;28;20142;-68
2021/03/09 01:43:26;;;;;;;49.97;27.52;;;6.50;99.90;;;;;;4163727;28;20049;-68
2021/03/09 01:45:27;;;;;;;50.78;27.10;;;6.50;99.90;;;;;;4155293;28;20041;-68
2021/03/09 01:47:30;;;;;;;50.03;26.70;;;6.50;99.90;;;;;;4150236;28;20048;-68
2021/03/09 01:49:37;;;;;;;49.63;26.92;;;6.50;99.90;;;;;;4158613;28;20454;-68
2021/03/09 01:51:40;;;;;;;48.17;25.77;;;6.50;99.90;;;;;;4155038;28;20041;-68
2021/03/09 01:53:42;;;;;;;53.67;27.23;;;6.50;99.90;;;;;;4150061;28;20074;-68
2021/03/09 01:55:43;;;;;;;50.67;27.95;;;6.50;99.90;;;;;;4154811;28;20033;-68
2021/03/09 01:57:44;;;;;;;49.78;27.48;;;6.40;99.90;;;;;;4158751;28;20038;-68
2021/03/09 01:59:49;;;;;;;53.13;27.83;;;6.40;99.90;;;;;;4156815;28;20041;-68
2021/03/09 02:01:51;;;;;;;49.25;26.13;;;6.40;99.90;;;;;;4159842;28;20060;-68
2021/03/09 02:03:52;;;;;;;50.38;27.70;;;6.40;99.90;;;;;;4162316;28;20557;-68
2021/03/09 02:05:53;;;;;;;56.05;28.42;;;6.40;99.90;;;;;;4156465;28;20038;-68
2021/03/09 02:07:54;;;;;;;53.70;28.42;;;6.40;99.90;;;;;;4153353;28;20045;-68
2021/03/09 02:09:55;;;;;;;50.90;28.15;;;6.40;99.90;;;;;;4157271;28;20033;-68
2021/03/09 02:12:21;;;;;;;52.38;27.67;;;6.40;99.90;;;;;;4149585;28;20052;-68
2021/03/09 02:14:30;;;;;;;51.45;28.10;;;6.40;99.90;;;;;;4159150;28;20469;-68
2021/03/09 02:16:43;;;;;;;55.95;29.50;;;6.30;99.90;;;;;;4155521;28;20046;-68
2021/03/09 02:18:47;;;;;;;;;;;6.30;99.90;;;;;;4158504;28;20083;-68
2021/03/09 02:21:18;;;;;;;52.10;28.02;;;6.30;99.90;;;;;;4161457;28;19925;-68
2021/03/09 02:23:42;;;;;;;56.85;28.63;;;6.30;99.90;;;;;;4153260;28;20024;-68
2021/03/09 02:26:05;;;;;;;56.17;29.08;;;6.30;99.90;;;;;;4157096;28;20430;-68
2021/03/09 02:28:43;;;;;;;57.55;29.85;;;6.30;99.90;;;;;;4154500;28;20041;-68
2021/03/09 02:30:45;;;;;;;56.30;29.98;;;6.20;99.90;;;;;;4154270;28;20041;-68
2021/03/09 02:33:04;;;;;;;58.10;29.73;;;6.10;99.90;;;;;;4158729;28;20171;-68
2021/03/09 02:35:09;;;;;;;54.00;29.58;;;6.10;99.90;;;;;;4156686;28;20048;-68
2021/03/09 02:37:12;;;;;;;56.05;28.73;;;6.20;99.90;;;;;;4151972;28;20492;-68
2021/03/09 02:39:15;;;;;;;61.15;31.85;;;6.10;99.90;;;;;;4159138;28;20136;-68
2021/03/09 02:41:19;;;;;;;58.60;30.45;;;6.10;99.90;;;;;;4146401;28;20116;-68
2021/03/09 02:43:21;;;;;;;54.53;29.02;;;6.10;99.90;;;;;;4157264;28;20089;-67
2021/03/09 02:45:23;;;;;;;63.33;31.98;;;6.10;99.90;;;;;;4159391;28;20613;-68
2021/03/09 02:47:25;;;;;;;58.58;30.48;;;6.00;99.90;;;;;;4154874;28;20069;-68
2021/03/09 02:49:28;;;;;;;58.20;30.80;;;6.00;99.90;;;;;;4154752;28;20060;-68
2021/03/09 02:51:31;;;;;;;59.72;29.48;;;5.90;99.90;;;;;;4159983;28;20049;-68
2021/03/09 02:53:34;;;;;;;58.67;30.08;;;6.00;99.90;;;;;;4159826;28;20045;-68
2021/03/09 02:55:37;;;;;;;56.90;29.67;;;5.90;99.90;;;;;;4161161;28;20037;-68
2021/03/09 02:57:39;;;;;;;;;;;5.90;99.90;;;;;;4161489;28;20065;-68
2021/03/09 02:59:41;;;;;;;63.00;31.13;;;5.90;99.90;;;;;;4160708;28;20507;-68
2021/03/09 03:01:48;;;;;;;56.80;30.23;;;5.90;99.90;;;;;;4152968;28;20034;-68
2021/03/09 03:03:49;;;;;;;58.10;31.42;;;5.90;99.90;;;;;;4158598;28;20064;-68
2021/03/09 03:05:51;;;;;;;63.35;32.00;;;5.90;99.90;;;;;;4151069;28;20026;-68
2021/03/09 03:07:52;;;;;;;52.03;27.85;;;5.90;99.90;;;;;;4155767;28;20183;-68
2021/03/09 03:09:53;;;;;;;54.20;27.73;;;5.90;99.90;;;;;;4160605;28;20382;-68
2021/03/09 03:11:54;;;;;;;56.25;30.58;;;5.90;99.90;;;;;;4151054;28;20091;-68
2021/03/09 03:13:56;;;;;;;58.75;30.40;;;5.90;99.90;;;;;;4161120;28;20071;-68
2021/03/09 03:15:58;;;;;;;60.03;30.83;;;5.90;99.90;;;;;;4160134;28;20036;-68
2021/03/09 03:18:12;;;;;;;58.15;30.50;;;5.90;99.90;;;;;;4163195;28;20092;-68
2021/03/09 03:20:16;;;;;;;61.55;30.38;;;5.90;99.90;;;;;;4159205;28;20033;-69
2021/03/09 03:22:18;;;;;;;61.55;32.92;;;5.90;99.90;;;;;;4152820;28;20030;-68
2021/03/09 03:24:19;;;;;;;65.75;33.72;;;5.80;99.90;;;;;;4161015;28;20720;-68
2021/03/09 03:26:23;;;;;;;62.58;32.58;;;5.80;99.90;;;;;;4160894;28;20057;-68
2021/03/09 03:28:24;;;;;;;58.85;32.05;;;5.80;99.90;;;;;;4155841;28;20088;-68
2021/03/09 03:30:25;;;;;;;68.30;36.05;;;5.70;99.90;;;;;;4160529;28;20037;-68
2021/03/09 03:32:26;;;;;;;64.15;33.40;;;5.70;99.90;;;;;;4156062;28;20038;-68
2021/03/09 03:34:28;;;;;;;61.00;31.92;;;5.70;99.90;;;;;;4159451;28;20041;-68
2021/03/09 03:36:32;;;;;;;55.35;29.60;;;5.70;99.90;;;;;;4157137;28;20037;-68
2021/03/09 03:38:40;;;;;;;53.85;28.88;;;5.70;99.90;;;;;;4152098;28;20520;-68
2021/03/09 03:40:42;;;;;;;63.13;33.30;;;5.70;99.90;;;;;;4156004;28;20038;-68
2021/03/09 03:42:44;;;;;;;62.40;32.88;;;5.70;99.90;;;;;;4155473;28;20038;-68
2021/03/09 03:44:45;;;;;;;54.03;29.77;;;5.70;99.90;;;;;;4155272;28;20604;-68
2021/03/09 03:46:46;;;;;;;63.60;33.80;;;5.70;99.90;;;;;;4159913;28;20033;-69
2021/03/09 03:48:47;;;;;;;69.35;35.70;;;5.70;99.90;;;;;;4159913;28;20120;-68
2021/03/09 03:50:53;;;;;;;67.68;34.53;;;5.60;99.90;;;;;;4160308;28;20033;-68
2021/03/09 03:53:14;;;;;;;61.75;33.45;;;5.50;99.90;;;;;;4149216;28;20138;-68
2021/03/09 03:55:40;;;;;;;64.20;33.30;;;5.50;99.90;;;;;;4154871;28;20048;-68
2021/03/09 03:57:48;;;;;;;68.68;35.03;;;5.50;99.90;;;;;;4174210;28;20033;-68
2021/03/09 03:59:56;;;;;;;63.28;32.85;;;5.40;99.90;;;;;;4154250;28;20040;-68
2021/03/09 04:02:03;;;;;;;63.53;33.25;;;5.50;99.90;;;;;;4158927;28;20081;-68
2021/03/09 04:04:10;;;;;;;61.63;31.67;;;5.40;99.90;;;;;;4159985;28;20400;-68
2021/03/09 04:06:11;;;;;;;66.40;33.75;;;5.50;99.90;;;;;;4152119;28;20029;-68
2021/03/09 04:08:13;;;;;;;61.25;33.83;;;5.50;99.90;;;;;;4154204;28;20493;-68
2021/03/09 04:10:14;;;;;;;67.43;35.63;;;5.50;99.90;;;;;;4159539;28;20052;-68
2021/03/09 04:12:15;;;;;;;56.47;30.77;;;5.40;99.90;;;;;;4153937;28;20477;-69
2021/03/09 04:14:17;;;;;;;62.03;32.22;;;5.40;99.90;;;;;;4147541;28;20030;-68
2021/03/09 04:16:20;;;;;;;62.95;31.90;;;5.40;99.90;;;;;;4159094;28;20094;-69
2021/03/09 04:18:24;;;;;;;66.35;33.95;;;5.40;99.90;;;;;;4151343;28;20064;-68
2021/03/09 04:20:26;;;;;;;67.60;34.60;;;5.40;99.90;;;;;;4155256;28;20029;-68
2021/03/09 04:22:29;;;;;;;65.50;34.50;;;5.40;99.90;;;;;;4159688;28;20444;-68
2021/03/09 04:24:32;;;;;;;67.50;33.40;;;5.40;99.90;;;;;;4152702;28;20052;-68
2021/03/09 04:26:34;;;;;;;65.40;33.67;;;5.30;99.90;;;;;;4158306;28;20456;-68
2021/03/09 04:28:36;;;;;;;62.55;32.55;;;5.30;99.90;;;;;;4155615;28;20037;-68
2021/03/09 04:30:37;;;;;;;65.65;33.45;;;5.40;99.90;;;;;;4154053;28;20033;-68
2021/03/09 04:32:37;;;;;;;61.30;32.22;;;5.30;99.90;;;;;;4149662;28;20037;-68
2021/03/09 04:34:38;;;;;;;61.97;32.67;;;5.30;99.90;;;;;;4151412;28;20064;-68
2021/03/09 04:36:42;;;;;;;62.92;33.47;;;5.30;99.90;;;;;;4159618;28;20038;-68
2021/03/09 04:38:44;;;;;;;67.80;34.33;;;5.30;99.90;;;;;;4159455;28;20048;-68
2021/03/09 04:40:45;;;;;;;64.30;33.22;;;5.30;99.90;;;;;;4159580;28;20116;-68
2021/03/09 04:42:45;;;;;;;64.82;34.38;;;5.20;99.90;;;;;;4158802;28;20460;-68
2021/03/09 04:44:46;;;;;;;67.57;33.78;;;5.20;99.90;;;;;;4159288;28;20499;-68
2021/03/09 04:46:47;;;;;;;65.68;34.83;;;5.20;99.90;;;;;;4159313;28;20116;-68
2021/03/09 04:48:49;;;;;;;63.25;33.38;;;5.20;99.90;;;;;;4159194;28;20040;-68
2021/03/09 04:50:51;;;;;;;72.97;36.70;;;5.20;99.90;;;;;;4159535;28;20040;-68
2021/03/09 04:52:52;;;;;;;62.50;32.63;;;5.20;99.90;;;;;;4157152;28;20469;-68
2021/03/09 04:54:54;;;;;;;64.28;34.22;;;5.20;99.90;;;;;;4159550;28;20041;-68
2021/03/09 04:56:54;;;;;;;65.68;35.55;;;5.20;99.90;;;;;;4159618;28;20033;-68
2021/03/09 04:58:55;;;;;;;65.90;33.20;;;5.20;99.90;;;;;;4159136;28;20156;-68
2021/03/09 05:00:56;;;;;;;61.55;32.78;;;5.20;99.90;;;;;;4154338;28;20078;-69
2021/03/09 05:02:57;;;;;;;60.97;32.72;;;5.30;99.90;;;;;;4155052;28;20041;-68
2021/03/09 05:04:58;;;;;;;57.75;31.73;;;5.30;99.90;;;;;;4148631;28;20026;-68
2021/03/09 05:06:59;;;;;;;59.58;31.55;;;5.30;99.90;;;;;;4157354;28;20045;-69
2021/03/09 05:08:59;;;;;;;60.53;32.88;;;5.30;99.90;;;;;;4149891;28;20116;-68
2021/03/09 05:11:00;;;;;;;62.53;33.80;;;5.30;99.90;;;;;;4158963;28;20033;-68
2021/03/09 05:13:00;;;;;;;59.95;32.50;;;5.30;99.90;;;;;;4156956;28;20049;-68
2021/03/09 05:15:02;;;;;;;64.80;35.08;;;5.30;99.90;;;;;;4150314;28;20030;-68
2021/03/09 05:17:03;;;;;;;63.10;33.55;;;5.30;99.90;;;;;;4158898;28;20030;-68
2021/03/09 05:19:04;;;;;;;65.63;35.33;;;5.30;99.90;;;;;;4154763;28;20041;-69
2021/03/09 05:21:04;;;;;;;60.72;33.20;;;5.30;99.90;;;;;;4157705;28;20040;-69
2021/03/09 05:23:05;;;;;;;64.47;34.47;;;5.30;99.90;;;;;;4154779;28;20037;-69
2021/03/09 05:25:09;;;;;;;65.25;35.55;;;5.30;99.90;;;;;;4154736;28;20037;-69
2021/03/09 05:27:10;;;;;;;68.38;34.58;;;5.30;99.90;;;;;;4181096;28;20037;-69
2021/03/09 05:29:10;;;;;;;72.43;38.58;;;5.30;99.90;;;;;;4149538;28;20057;-69
2021/03/09 05:31:11;;;;;;;73.20;36.00;;;5.20;99.90;;;;;;4153646;28;20033;-69
2021/03/09 05:33:11;;;;;;;62.13;34.10;;;5.20;99.90;;;;;;4153645;28;20117;-69
2021/03/09 05:35:14;;;;;;;69.50;37.22;;;5.20;99.90;;;;;;4159197;28;20037;-69
2021/03/09 05:37:15;;;;;;;;;;;5.20;99.90;;;;;;4162515;28;20104;-69
2021/03/09 05:39:15;;;;;;;64.72;34.75;;;5.20;99.90;;;;;;4161395;28;19962;-69
2021/03/09 05:41:16;;;;;;;66.30;35.65;;;5.20;99.90;;;;;;4157549;28;20052;-69
2021/03/09 05:43:17;;;;;;;76.85;37.90;;;5.20;99.90;;;;;;4156116;28;20038;-69
2021/03/09 05:45:19;;;;;;;68.25;36.97;;;5.20;99.90;;;;;;4161785;28;20033;-68
2021/03/09 05:47:22;;;;;;;72.45;37.42;;;5.10;99.90;;;;;;4160022;28;20521;-69
2021/03/09 05:49:23;;;;;;;68.93;36.33;;;5.20;99.90;;;;;;4157567;28;20033;-69
2021/03/09 05:51:25;;;;;;;64.25;33.90;;;5.10;99.90;;;;;;4160908;28;20045;-68
2021/03/09 05:53:26;;;;;;;66.20;36.53;;;5.20;99.90;;;;;;4160942;28;20100;-69
2021/03/09 05:55:26;;;;;;;64.03;34.72;;;5.10;99.90;;;;;;4162587;28;20469;-68
2021/03/09 05:57:27;;;;;;;68.85;37.08;;;5.10;99.90;;;;;;4160236;28;20058;-68
2021/03/09 05:59:28;;;;;;;70.00;37.75;;;5.10;99.90;;;;;;4158104;28;20033;-69
2021/03/09 06:01:28;;;;;;;66.20;35.80;;;5.10;99.90;;;;;;4153026;28;20045;-68
2021/03/09 06:03:29;;;;;;;66.97;36.28;;;5.10;99.90;;;;;;4154739;28;20146;-68
2021/03/09 06:05:29;;;;;;;72.70;38.35;;;5.10;99.90;;;;;;4150962;28;20041;-68
2021/03/09 06:07:30;;;;;;;69.97;38.15;;;5.00;99.90;;;;;;4154638;28;20125;-69
2021/03/09 06:09:33;;;;;;;65.38;35.30;;;5.10;99.90;;;;;;4142762;28;20042;-69
2021/03/09 06:11:34;;;;;;;60.00;33.78;;;5.10;99.90;;;;;;4126901;28;20066;-69
2021/03/09 06:13:35;;;;;;;66.90;35.10;;;5.10;99.90;;;;;;4164301;28;20129;-69
2021/03/09 06:15:53;;;;;;;67.93;36.53;;;5.10;99.90;;;;;;4156196;28;20045;-69
2021/03/09 06:17:56;;;;;;;65.65;36.20;;;5.10;99.90;;;;;;4149870;28;20044;-69
2021/03/09 06:19:57;;;;;;;63.90;35.97;;;5.10;99.90;;;;;;4156531;28;20432;-68
2021/03/09 06:21:58;;;;;;;66.05;36.35;;;5.10;99.90;;;;;;4154577;28;20034;-69
2021/03/09 06:24:18;;;;;;;68.88;36.88;;;5.10;99.90;;;;;;4150674;28;20026;-69
2021/03/09 06:26:38;;;;;;;61.17;34.58;;;5.10;99.90;;;;;;4149289;28;20045;-69
2021/03/09 06:28:39;;;;;;;64.90;35.92;;;5.10;99.90;;;;;;4158934;28;20056;-68
2021/03/09 06:30:41;;;;;;;66.95;35.13;;;5.10;99.90;;;;;;4157837;28;20026;-69
2021/03/09 06:32:44;;;;;;;68.25;34.58;;;5.10;99.90;;;;;;4173085;28;20111;-69
2021/03/09 06:34:45;;;;;;;66.95;37.90;;;5.10;99.90;;;;;;4167367;28;20068;-68
2021/03/09 06:37:04;;;;;;;61.92;36.40;;;5.00;99.90;;;;;;4152610;28;20460;-68
2021/03/09 06:39:24;;;;;;;65.28;34.38;;;5.10;99.90;;;;;;4113485;28;20061;-68
2021/03/09 06:41:25;;;;;;;64.28;35.13;;;5.10;99.90;;;;;;4150740;28;20486;-68
2021/03/09 06:43:26;;;;;;;61.75;34.28;;;5.10;99.90;;;;;;4151700;28;20045;-68
2021/03/09 06:45:27;;;;;;;64.47;35.83;;;5.10;99.90;;;;;;4154762;28;20099;-68
2021/03/09 06:47:34;;;;;;;63.78;34.90;;;5.10;99.90;;;;;;4155806;28;20068;-69
2021/03/09 06:49:51;;;;;;;55.58;32.97;;;5.10;99.90;;;;;;4154883;28;20033;-69
2021/03/09 06:51:51;;;;;;;64.18;35.47;;;5.10;99.90;;;;;;4153237;28;20215;-69
2021/03/09 06:53:58;;;;;;;60.72;34.20;;;5.10;99.90;;;;;;4137045;28;20144;-68
2021/03/09 06:55:59;;;;;;;70.78;37.58;;;5.10;99.90;;;;;;4154221;28;20635;-68
2021/03/09 06:58:07;;;;;;;59.63;34.25;;;5.00;99.90;;;;;;4153749;28;20128;-68
2021/03/09 07:00:10;;;;;;;60.22;33.92;;;5.10;99.90;;;;;;4155124;28;20133;-69
2021/03/09 07:02:23;;;;;;;60.63;33.97;;;5.10;99.90;;;;;;4152417;28;20053;-69
2021/03/09 07:04:25;;;;;;;59.25;33.38;;;5.00;99.90;;;;;;4155850;28;20033;-68
2021/03/09 07:06:25;;;;;;;59.33;31.70;;;5.10;99.90;;;;;;4155383;28;20038;-68
2021/03/09 07:08:26;;;;;;;56.95;31.05;;;5.10;99.90;;;;;;4156623;28;20046;-68
2021/03/09 07:10:30;;;;;;;59.83;33.05;;;5.20;99.90;;;;;;4157465;28;20030;-69
2021/03/09 07:12:36;;;;;;;60.22;33.80;;;5.10;99.90;;;;;;4137836;28;20124;-68
2021/03/09 07:14:40;;;;;;;55.70;31.35;;;5.10;99.90;;;;;;4157896;28;20801;-69
2021/03/09 07:16:50;;;;;;;61.40;32.40;;;5.10;99.90;;;;;;4153855;28;20026;-68
2021/03/09 07:18:50;;;;;;;61.03;33.05;;;5.10;99.90;;;;;;4155753;28;20041;-68
2021/03/09 07:20:53;;;;;;;60.38;33.22;;;5.10;99.90;;;;;;4155603;28;20304;-69
2021/03/09 07:22:54;;;;;;;;;;;5.10;99.90;;;;;;4157321;28;20041;-68
2021/03/09 07:25:04;;;;;;;63.20;33.70;;;5.20;99.90;;;;;;4155833;28;19917;-68
2021/03/09 07:27:14;;;;;;;58.42;32.25;;;5.20;99.90;;;;;;4151449;28;20286;-69
2021/03/09 07:29:16;;;;;;;59.88;32.70;;;5.20;99.90;;;;;;4154638;28;20029;-69
2021/03/09 07:31:24;;;;;;;54.95;30.75;;;5.20;99.90;;;;;;4137190;28;20038;-69
2021/03/09 07:33:25;;;;;;;53.25;30.52;;;5.20;99.90;;;;;;4153772;28;20044;-69
2021/03/09 07:35:28;;;;;;;55.00;31.87;;;5.20;99.90;;;;;;4156895;28;20045;-69
2021/03/09 07:37:29;;;;;;;55.30;31.38;;;5.20;99.90;;;;;;4155803;28;20037;-68
2021/03/09 07:39:31;;;;;;;53.15;29.30;;;5.20;99.90;;;;;;4154025;28;20033;-69
2021/03/09 07:41:36;;;;;;;52.33;28.98;;;5.20;99.90;;;;;;4144239;28;20029;-69
2021/03/09 07:43:37;;;;;;;56.60;32.55;;;5.20;99.90;;;;;;4154164;28;20033;-69
2021/03/09 07:45:39;;;;;;;54.45;30.48;;;5.20;99.90;;;;;;4152285;28;20109;-69
2021/03/09 07:47:56;;;;;;;58.47;31.60;;;5.20;99.90;;;;;;4154631;28;20317;-69
2021/03/09 07:49:57;;;;;;;51.22;29.23;;;5.20;99.90;;;;;;4155936;28;20504;-69
2021/03/09 07:52:20;;;;;;;51.78;29.65;;;5.20;99.90;;;;;;4157339;28;20029;-69
2021/03/09 07:54:20;;;;;;;57.20;30.15;;;5.20;99.90;;;;;;4152118;28;20037;-69
2021/03/09 07:56:21;;;;;;;51.97;29.30;;;5.20;99.90;;;;;;4155867;28;20112;-71
2021/03/09 07:58:23;;;;;;;50.97;28.63;;;5.20;99.90;;;;;;4155986;28;20539;-69
2021/03/09 08:00:24;;;;;;;54.25;30.95;;;5.20;99.90;;;;;;4154886;28;20056;-69
2021/03/09 08:02:44;;;;;;;52.97;30.63;;;5.20;99.90;;;;;;4153203;28;20489;-69
2021/03/09 08:04:56;;;;;;;53.72;29.83;;;5.20;99.90;;;;;;4157134;28;20044;-69
2021/03/09 08:06:57;;;;;;;55.17;29.30;;;5.20;99.90;;;;;;4156157;28;20105;-69
2021/03/09 08:08:58;;;;;;;47.88;28.05;;;5.30;99.90;;;;;;4158030;28;20038;-69
2021/03/09 08:10:58;;;;;;;51.38;29.52;;;5.30;99.90;;;;;;4150696;28;20041;-69
2021/03/09 08:13:06;;;;;;;46.80;28.08;;;5.30;99.90;;;;;;4154257;28;20041;-69
2021/03/09 08:15:21;;;;;;;56.65;29.67;;;5.30;99.90;;;;;;4149140;28;20067;-69
2021/03/09 08:17:27;;;;;;;50.05;29.15;;;5.30;99.90;;;;;;4153997;28;20037;-69
2021/03/09 08:19:27;;;;;;;50.90;28.02;;;5.30;99.90;;;;;;4153964;28;20548;-69
2021/03/09 08:21:56;;;;;;;52.00;29.25;;;5.30;99.90;;;;;;4152833;28;20033;-69
2021/03/09 08:23:56;;;;;;;49.30;27.80;;;5.30;99.90;;;;;;4179555;28;20067;-69
2021/03/09 08:26:20;;;;;;;47.20;26.65;;;5.30;99.90;;;;;;4155429;28;20358;-69
2021/03/09 08:28:34;;;;;;;50.47;28.08;;;5.40;99.90;;;;;;4149278;28;20044;-69
2021/03/09 08:30:36;;;;;;;46.83;27.40;;;5.30;99.90;;;;;;4152371;28;20034;-69
2021/03/09 08:32:38;;;;;;;47.45;27.17;;;5.30;99.90;;;;;;4154030;28;20370;-69
2021/03/09 08:34:38;;;;;;;49.27;28.33;;;5.30;99.90;;;;;;4156504;28;20045;-69
2021/03/09 08:36:40;;;;;;;45.65;26.95;;;5.40;99.90;;;;;;4153969;28;20405;-69
2021/03/09 08:38:43;;;;;;;49.42;28.45;;;5.30;99.90;;;;;;4155934;28;20034;-69
2021/03/09 08:41:03;;;;;;;46.95;26.35;;;5.30;99.90;;;;;;4155375;28;20413;-69
2021/03/09 08:43:06;;;;;;;49.03;26.88;;;5.30;99.90;;;;;;4154995;28;20037;-69
2021/03/09 08:45:33;;;;;;;46.30;27.08;;;5.30;99.90;;;;;;4152093;28;20141;-69
2021/03/09 08:47:51;;;;;;;48.60;28.10;;;5.30;99.90;;;;;;4154290;28;20099;-69
2021/03/09 08:49:52;;;;;;;42.78;25.48;;;5.20;99.90;;;;;;4148040;28;20298;-69
2021/03/09 08:51:53;;;;;;;45.13;25.30;;;5.30;99.90;;;;;;4152260;28;20038;-69
2021/03/09 08:53:54;;;;;;;42.55;24.58;;;5.30;99.90;;;;;;4152588;28;20041;-69
2021/03/09 08:55:59;;;;;;;43.40;25.27;;;5.30;99.90;;;;;;4152562;28;20073;-69
2021/03/09 08:58:09;;;;;;;43.25;25.55;;;5.30;99.90;;;;;;4156044;28;20040;-69
2021/03/09 09:00:11;;;;;;;44.35;25.17;;;5.30;99.90;;;;;;4153857;28;20137;-69
2021/03/09 09:02:22;;;;;;;41.80;26.30;;;5.40;99.90;;;;;;4150575;28;20052;-69
2021/03/09 09:04:23;;;;;;;42.08;25.02;;;5.40;99.90;;;;;;4152419;28;20030;-69
2021/03/09 09:06:26;;;;;;;42.45;24.33;;;5.40;99.90;;;;;;4152297;28;20470;-69
2021/03/09 09:08:27;;;;;;;40.08;23.95;;;5.40;99.90;;;;;;4150212;28;20441;-69
2021/03/09 09:10:28;;;;;;;42.47;24.83;;;5.40;99.90;;;;;;4149271;28;20077;-69
2021/03/09 09:12:35;;;;;;;37.88;23.35;;;5.40;99.90;;;;;;4153835;28;20052;-69
2021/03/09 09:14:35;;;;;;;38.72;23.75;;;5.40;99.90;;;;;;4149995;28;20128;-69
2021/03/09 09:16:36;;;;;;;36.05;21.60;;;5.50;99.90;;;;;;4151134;28;20048;-69
2021/03/09 09:18:37;;;;;;;42.10;22.95;;;5.50;99.90;;;;;;4152552;28;20466;-69
2021/03/09 09:20:48;;;;;;;41.08;24.30;;;5.50;99.90;;;;;;4153045;28;20524;-69
2021/03/09 09:22:51;;;;;;;38.50;22.85;;;5.50;99.90;;;;;;4148799;28;20045;-69
2021/03/09 09:25:05;;;;;;;37.85;23.20;;;5.50;99.90;;;;;;4143244;28;20045;-69
2021/03/09 09:27:06;;;;;;;36.83;22.10;;;5.50;99.90;;;;;;4148810;28;20038;-69
2021/03/09 09:29:07;;;;;;;38.88;22.95;;;5.50;99.90;;;;;;4153198;28;20029;-69
2021/03/09 09:31:16;;;;;;;35.10;22.00;;;5.50;99.90;;;;;;4151192;28;20037;-69
2021/03/09 09:33:17;;;;;;;35.28;21.27;;;5.60;99.90;;;;;;4148718;28;20034;-69
2021/03/09 09:35:20;;;;;;;35.40;22.00;;;5.60;99.90;;;;;;4154189;28;20500;-69
2021/03/09 09:37:20;;;;;;;41.72;25.23;;;5.60;99.90;;;;;;4154450;28;20021;-69
2021/03/09 09:39:32;;;;;;;38.08;23.65;;;5.60;99.90;;;;;;4155555;28;20025;-69
2021/03/09 09:41:33;;;;;;;36.93;23.80;;;5.70;99.90;;;;;;4150685;28;20405;-69
2021/03/09 09:43:35;;;;;;;42.25;25.38;;;5.60;99.90;;;;;;4155439;28;20280;-69
2021/03/09 09:45:45;;;;;;;43.20;24.50;;;5.60;99.90;;;;;;4149166;28;20050;-69
2021/03/09 09:47:46;;;;;;;39.42;24.20;;;5.60;99.90;;;;;;4146099;28;20790;-69
2021/03/09 09:49:47;;;;;;;38.75;23.08;;;5.70;99.90;;;;;;4155421;28;20071;-69
2021/03/09 09:51:48;;;;;;;42.83;24.15;;;5.70;99.90;;;;;;4154544;28;20054;-69
2021/03/09 09:53:51;;;;;;;40.25;23.83;;;5.70;99.90;;;;;;4149894;28;20456;-69
2021/03/09 09:55:54;;;;;;;35.63;22.10;;;5.70;99.90;;;;;;4151944;28;20045;-69
2021/03/09 09:57:57;;;;;;;41.60;23.35;;;5.70;99.90;;;;;;4146888;28;20037;-69
2021/03/09 10:00:12;;;;;;;39.35;23.25;;;5.70;99.90;;;;;;4154180;28;20037;-69
2021/03/09 10:02:17;;;;;;;37.33;22.15;;;5.70;99.90;;;;;;4151495;28;20034;-69
2021/03/09 10:04:17;;;;;;;38.65;23.35;;;5.80;99.90;;;;;;4152344;28;20034;-70
2021/03/09 10:06:18;;;;;;;36.92;22.33;;;5.90;99.90;;;;;;4151522;28;20125;-69
2021/03/09 10:08:35;;;;;;;36.83;21.55;;;5.90;99.90;;;;;;4158879;28;20099;-69
2021/03/09 10:10:38;;;;;;;39.67;23.58;;;6.00;99.90;;;;;;4147495;28;20299;-69
2021/03/09 10:12:39;;;;;;;37.45;22.15;;;6.00;99.90;;;;;;4151704;28;20478;-69
2021/03/09 10:14:54;;;;;;;34.35;19.95;;;6.00;99.90;;;;;;4154238;28;20382;-69
2021/03/09 10:16:55;;;;;;;39.95;23.13;;;6.00;99.90;;;;;;4156773;28;20029;-69
2021/03/09 10:18:55;;;;;;;42.25;25.13;;;6.10;99.90;;;;;;4155644;28;20032;-69
2021/03/09 10:21:14;;;;;;;57.72;31.95;;;6.20;99.90;;;;;;4157611;28;20046;-69
2021/03/09 10:23:15;;;;;;;46.50;26.95;;;6.20;99.90;;;;;;4155071;28;20034;-69
2021/03/09 10:25:16;;;;;;;41.60;24.88;;;6.20;99.90;;;;;;4152804;28;20155;-69
2021/03/09 10:27:23;;;;;;;43.72;25.33;;;6.20;99.90;;;;;;4157247;28;20495;-69
2021/03/09 10:29:25;;;;;;;41.30;24.42;;;6.30;99.90;;;;;;4158500;28;20049;-69
2021/03/09 10:31:26;;;;;;;43.05;24.27;;;6.20;99.90;;;;;;4153023;28;20572;-69
2021/03/09 10:33:27;;;;;;;46.05;26.08;;;6.30;99.90;;;;;;4140939;28;20054;-69
2021/03/09 10:35:27;;;;;;;42.90;25.67;;;6.30;99.90;;;;;;4159028;28;20064;-69
2021/03/09 10:37:36;;;;;;;42.55;25.38;;;6.40;99.90;;;;;;4156058;28;20038;-69